Time;durP1;ratioP1;P1;durP2;ratioP2;P2;SDS_P1;SDS_P2;PMS_P1;PMS_P2;Temp;Humidity;BMP_temperature;BMP_pressure;BME280_temperature;BME280_humidity;BME280_pressure;Samples;Min_cycle;Max_cycle;Signal;HPM_P1;HPM_P2
2021/04/18 00:00:52;;;;;;;20.52;7.55;;;3.10;86.70;;;;;;5074138;28;20028;-80
2021/04/18 00:03:18;;;;;;;18.38;8.50;;;3.10;86.80;;;;;;5036714;28;20047;-80
2021/04/18 00:05:44;;;;;;;22.20;8.90;;;3.10;87.00;;;;;;5074472;28;20035;-80
2021/04/18 00:08:10;;;;;;;16.70;7.38;;;3.10;87.00;;;;;;5081959;28;20036;-80
2021/04/18 00:10:41;;;;;;;18.02;8.30;;;3.10;87.20;;;;;;5089276;28;20032;-80
2021/04/18 00:13:10;;;;;;;24.60;8.70;;;3.00;87.10;;;;;;5085555;28;20028;-80
2021/04/18 00:15:39;;;;;;;21.17;9.32;;;3.00;87.10;;;;;;5078218;28;20513;-80
2021/04/18 00:18:06;;;;;;;19.13;8.02;;;3.00;87.40;;;;;;5052356;28;20190;-80
2021/04/18 00:20:32;;;;;;;19.95;7.45;;;3.10;87.70;;;;;;5068597;28;20028;-79
2021/04/18 00:22:58;;;;;;;17.25;7.50;;;3.00;87.70;;;;;;5051599;28;20055;-80
2021/04/18 00:25:24;;;;;;;21.00;9.10;;;2.90;87.40;;;;;;5069086;28;20086;-80
2021/04/18 00:27:50;;;;;;;21.00;8.95;;;3.00;87.40;;;;;;5073687;28;20111;-80
2021/04/18 00:30:18;;;;;;;21.88;10.43;;;2.90;88.10;;;;;;5077434;28;20041;-80
2021/04/18 00:32:45;;;;;;;33.17;11.40;;;2.90;87.60;;;;;;5075393;28;20558;-80
2021/04/18 00:35:13;;;;;;;30.38;12.18;;;3.00;87.80;;;;;;5081570;28;20041;-80
2021/04/18 00:37:39;;;;;;;34.28;12.50;;;3.10;88.20;;;;;;5054617;28;20979;-80
2021/04/18 00:40:07;;;;;;;18.67;9.27;;;3.10;88.40;;;;;;5083140;28;20047;-80
2021/04/18 00:42:33;;;;;;;23.15;10.13;;;3.10;88.50;;;;;;5079518;28;20537;-80
2021/04/18 00:45:00;;;;;;;26.05;10.38;;;3.10;88.30;;;;;;5080877;28;20029;-80
2021/04/18 00:47:27;;;;;;;20.15;8.32;;;3.10;88.30;;;;;;5060617;28;20064;-80
2021/04/18 00:49:52;;;;;;;15.57;7.22;;;3.20;88.50;;;;;;5063760;28;20028;-80
2021/04/18 00:52:18;;;;;;;20.48;8.15;;;3.10;88.20;;;;;;5063033;28;20024;-80
2021/04/18 00:54:44;;;;;;;17.58;7.18;;;3.00;87.90;;;;;;5073420;28;20048;-81
2021/04/18 00:57:10;;;;;;;12.85;6.85;;;2.90;88.00;;;;;;5062764;28;20227;-80
2021/04/18 00:59:36;;;;;;;17.60;7.97;;;2.90;88.00;;;;;;5051837;28;20046;-81
2021/04/18 01:02:02;;;;;;;19.77;8.20;;;2.80;88.00;;;;;;5086062;28;20267;-80
2021/04/18 01:04:28;;;;;;;17.40;7.50;;;2.80;88.10;;;;;;5080250;28;20483;-81
2021/04/18 01:06:54;;;;;;;20.15;7.90;;;2.70;88.20;;;;;;5072030;28;20043;-81
2021/04/18 01:09:20;;;;;;;16.52;8.38;;;2.70;88.20;;;;;;5067249;28;20378;-81
2021/04/18 01:11:46;;;;;;;23.17;9.35;;;2.70;88.30;;;;;;5049473;28;20036;-81
2021/04/18 01:14:11;;;;;;;17.23;7.45;;;2.60;88.50;;;;;;5077441;28;20062;-81
2021/04/18 01:16:37;;;;;;;18.90;8.07;;;2.60;88.60;;;;;;5064762;28;20040;-81
2021/04/18 01:19:03;;;;;;;17.40;9.43;;;2.60;88.60;;;;;;5049143;28;20041;-81
2021/04/18 01:21:29;;;;;;;26.08;10.98;;;2.60;88.60;;;;;;5080265;28;20098;-81
2021/04/18 01:23:55;;;;;;;24.65;10.63;;;2.50;88.70;;;;;;5072684;28;20510;-81
2021/04/18 01:26:20;;;;;;;27.80;11.35;;;2.50;88.80;;;;;;5019405;28;20071;-79
2021/04/18 01:28:47;;;;;;;29.48;10.98;;;2.60;89.00;;;;;;5048071;28;20115;-79
2021/04/18 01:31:12;;;;;;;27.65;11.35;;;2.50;89.00;;;;;;5067102;28;20049;-79
2021/04/18 01:33:38;;;;;;;27.70;11.00;;;2.40;88.90;;;;;;5051958;28;20039;-80
2021/04/18 01:36:06;;;;;;;21.70;9.23;;;2.40;89.10;;;;;;5065520;28;20438;-79
2021/04/18 01:38:32;;;;;;;20.63;8.65;;;2.40;89.20;;;;;;5060667;28;20110;-80
2021/04/18 01:40:59;;;;;;;25.10;8.80;;;2.40;89.10;;;;;;5049469;28;20067;-79
2021/04/18 01:43:25;;;;;;;25.75;9.02;;;2.30;89.00;;;;;;5048378;28;20341;-81
2021/04/18 01:45:51;;;;;;;23.65;9.80;;;2.30;89.00;;;;;;5063435;28;20102;-82
2021/04/18 01:48:18;;;;;;;22.63;9.27;;;2.30;89.00;;;;;;5068012;28;20056;-80
2021/04/18 01:50:47;;;;;;;28.48;10.25;;;2.30;89.20;;;;;;5054848;28;20040;-81
2021/04/18 01:53:13;;;;;;;25.17;10.05;;;2.30;89.20;;;;;;5074013;28;20055;-81
2021/04/18 01:55:39;;;;;;;31.40;11.45;;;2.30;89.20;;;;;;5050638;28;20071;-82
2021/04/18 01:58:06;;;;;;;21.17;9.10;;;2.20;89.50;;;;;;5071864;28;20522;-82
2021/04/18 02:00:32;;;;;;;17.08;9.40;;;2.10;89.50;;;;;;5083871;28;20478;-80
2021/04/18 02:02:58;;;;;;;19.45;9.13;;;2.20;89.60;;;;;;5082614;28;20028;-80
2021/04/18 02:05:25;;;;;;;19.90;8.98;;;2.20;89.40;;;;;;5079501;28;20246;-80
2021/04/18 02:07:51;;;;;;;18.75;9.52;;;2.20;89.40;;;;;;5065637;28;20131;-79
2021/04/18 02:10:17;;;;;;;23.05;10.38;;;2.20;89.50;;;;;;5066947;28;20037;-80
2021/04/18 02:12:44;;;;;;;20.30;10.73;;;2.20;89.40;;;;;;5069176;28;20039;-80
2021/04/18 02:15:10;;;;;;;26.80;10.20;;;2.30;89.70;;;;;;5054937;28;20037;-80
2021/04/18 02:17:37;;;;;;;27.55;10.68;;;2.20;89.70;;;;;;5079374;28;20732;-82
2021/04/18 02:20:05;;;;;;;23.75;9.68;;;2.20;89.50;;;;;;5081237;28;20108;-80
2021/04/18 02:22:32;;;;;;;24.95;11.00;;;2.20;89.50;;;;;;5079070;28;20036;-80
2021/04/18 02:24:58;;;;;;;22.05;11.68;;;2.20;89.50;;;;;;5064207;28;20081;-80
2021/04/18 02:27:26;;;;;;;27.13;12.68;;;2.10;89.70;;;;;;5050619;28;20032;-82
2021/04/18 02:29:53;;;;;;;26.65;12.05;;;2.20;90.00;;;;;;5069029;28;20633;-80
2021/04/18 02:32:19;;;;;;;23.05;11.05;;;2.20;89.80;;;;;;5059837;28;20044;-82
2021/04/18 02:34:46;;;;;;;28.35;11.50;;;2.30;90.00;;;;;;5076670;28;20041;-82
2021/04/18 02:37:12;;;;;;;28.63;13.38;;;2.30;90.00;;;;;;5073057;28;20043;-81
2021/04/18 02:39:38;;;;;;;26.90;13.23;;;2.30;90.10;;;;;;5062414;28;20032;-81
2021/04/18 02:42:05;;;;;;;27.20;13.35;;;2.40;90.20;;;;;;5063748;28;20123;-80
2021/04/18 02:44:30;;;;;;;29.63;13.68;;;2.40;90.30;;;;;;5068955;28;20036;-80
2021/04/18 02:46:57;;;;;;;29.02;12.52;;;2.50;90.50;;;;;;5070444;28;20180;-80
2021/04/18 02:49:22;;;;;;;28.27;12.77;;;2.50;90.30;;;;;;5066177;28;20039;-82
2021/04/18 02:51:48;;;;;;;29.58;12.90;;;2.50;90.20;;;;;;5063930;28;20418;-81
2021/04/18 02:54:14;;;;;;;33.63;16.08;;;2.50;90.20;;;;;;5067492;28;20047;-80
2021/04/18 02:56:40;;;;;;;31.35;14.75;;;2.50;90.30;;;;;;5047446;28;20640;-80
2021/04/18 02:59:06;;;;;;;33.20;13.45;;;2.60;90.40;;;;;;5069319;28;20032;-81
2021/04/18 03:01:32;;;;;;;25.05;12.73;;;2.70;90.40;;;;;;5066789;28;20614;-81
2021/04/18 03:03:58;;;;;;;32.83;15.20;;;2.60;90.40;;;;;;5076163;28;20028;-80
2021/04/18 03:06:24;;;;;;;34.40;15.70;;;2.60;90.80;;;;;;5059412;28;20032;-82
2021/04/18 03:08:49;;;;;;;29.85;13.68;;;2.60;90.40;;;;;;5061964;28;20038;-82
2021/04/18 03:11:17;;;;;;;25.15;11.95;;;2.60;90.50;;;;;;5062522;28;20595;-79
2021/04/18 03:13:44;;;;;;;37.05;11.98;;;2.70;90.60;;;;;;5059039;28;20114;-80
2021/04/18 03:16:10;;;;;;;27.85;11.95;;;2.60;90.50;;;;;;5068237;28;20033;-83
2021/04/18 03:18:36;;;;;;;26.13;9.82;;;2.60;90.40;;;;;;5064917;28;20517;-82
2021/04/18 03:21:03;;;;;;;21.65;9.65;;;2.50;90.40;;;;;;5082603;28;20032;-79
2021/04/18 03:23:29;;;;;;;21.80;9.18;;;2.50;90.40;;;;;;5081057;28;20043;-80
2021/04/18 03:25:54;;;;;;;23.15;11.13;;;2.40;90.20;;;;;;5081477;28;20032;-80
2021/04/18 03:28:20;;;;;;;29.50;11.85;;;2.30;90.20;;;;;;5067873;28;20036;-81
2021/04/18 03:30:46;;;;;;;22.23;8.98;;;2.20;90.30;;;;;;5051433;28;20032;-81
2021/04/18 03:33:12;;;;;;;20.00;9.00;;;2.10;90.30;;;;;;5055327;28;20055;-80
2021/04/18 03:35:39;;;;;;;27.75;9.38;;;2.10;90.30;;;;;;5084326;28;20036;-80
2021/04/18 03:38:05;;;;;;;21.23;9.82;;;2.00;90.50;;;;;;5050932;28;20399;-80
2021/04/18 03:40:32;;;;;;;28.55;10.60;;;2.00;90.50;;;;;;5059776;28;20233;-79
2021/04/18 03:42:58;;;;;;;28.38;12.43;;;1.90;90.50;;;;;;5068015;28;20486;-80
2021/04/18 03:45:24;;;;;;;28.67;12.60;;;1.90;90.60;;;;;;5062988;28;20041;-81
2021/04/18 03:47:50;;;;;;;23.52;11.48;;;1.80;90.60;;;;;;5067357;28;20413;-82
2021/04/18 03:50:17;;;;;;;21.02;11.07;;;1.90;90.70;;;;;;5068128;28;20105;-80
2021/04/18 03:52:44;;;;;;;20.83;10.85;;;1.80;90.70;;;;;;5068737;28;20253;-82
2021/04/18 03:55:11;;;;;;;29.30;11.18;;;1.80;90.70;;;;;;5060622;28;20360;-80
2021/04/18 03:57:37;;;;;;;28.77;12.05;;;1.80;90.70;;;;;;5059694;28;20124;-80
2021/04/18 04:00:07;;;;;;;25.73;11.07;;;1.80;90.70;;;;;;5063769;28;20036;-81
2021/04/18 04:02:33;;;;;;;27.77;12.57;;;1.90;90.70;;;;;;5049454;28;20372;-82
2021/04/18 04:04:59;;;;;;;27.52;11.57;;;1.90;90.70;;;;;;5064680;28;20038;-80
2021/04/18 04:07:24;;;;;;;30.50;12.70;;;1.90;90.70;;;;;;5063553;28;20125;-80
2021/04/18 04:09:50;;;;;;;27.98;12.35;;;1.90;90.80;;;;;;5047191;28;20588;-80
2021/04/18 04:12:16;;;;;;;13.43;8.55;;;1.90;90.80;;;;;;5041204;28;20856;-81
2021/04/18 04:14:42;;;;;;;17.85;9.32;;;1.90;90.80;;;;;;5033776;28;20067;-82
2021/04/18 04:17:08;;;;;;;15.13;6.85;;;1.80;90.80;;;;;;5067151;28;20425;-81
2021/04/18 04:19:34;;;;;;;18.65;9.07;;;1.80;90.80;;;;;;5065476;28;20114;-82
2021/04/18 04:21:59;;;;;;;85.22;10.90;;;1.80;90.80;;;;;;5064589;28;20036;-83
2021/04/18 04:24:25;;;;;;;52.70;12.23;;;1.80;90.80;;;;;;5073688;28;20028;-80
2021/04/18 04:26:51;;;;;;;124.72;12.88;;;1.80;90.80;;;;;;5066115;28;20032;-81
2021/04/18 04:29:18;;;;;;;19.00;11.10;;;1.80;90.90;;;;;;5066672;28;20040;-83
2021/04/18 04:31:43;;;;;;;22.95;12.23;;;1.80;90.90;;;;;;5069775;28;20189;-82
2021/04/18 04:34:09;;;;;;;23.45;11.93;;;1.70;90.90;;;;;;5063595;28;20138;-80
2021/04/18 04:36:35;;;;;;;26.10;13.13;;;1.60;91.00;;;;;;5051853;28;20086;-81
2021/04/18 04:39:02;;;;;;;25.30;13.15;;;1.60;91.00;;;;;;5062423;28;20036;-82
2021/04/18 04:41:28;;;;;;;23.23;12.57;;;1.60;91.00;;;;;;5077360;28;20292;-81
2021/04/18 04:43:54;;;;;;;24.52;12.45;;;1.60;91.10;;;;;;5049672;28;20120;-80
2021/04/18 04:46:20;;;;;;;21.30;11.23;;;1.50;91.10;;;;;;5080439;28;20028;-81
2021/04/18 04:48:46;;;;;;;20.83;11.85;;;1.60;91.50;;;;;;5067449;28;20101;-81
2021/04/18 04:51:12;;;;;;;24.10;14.80;;;1.60;91.20;;;;;;5066434;28;20843;-79
2021/04/18 04:53:38;;;;;;;16.20;10.98;;;1.60;91.20;;;;;;5062669;28;20032;-83
2021/04/18 04:56:04;;;;;;;15.48;11.60;;;1.60;91.50;;;;;;5067981;28;20383;-81
2021/04/18 04:58:30;;;;;;;20.30;12.43;;;1.60;91.20;;;;;;5059951;28;20056;-82
2021/04/18 05:00:56;;;;;;;19.02;10.50;;;1.70;91.20;;;;;;5058470;28;20067;-83
2021/04/18 05:03:25;;;;;;;17.33;11.70;;;1.80;91.20;;;;;;5065966;28;20034;-81
2021/04/18 05:05:51;;;;;;;18.92;12.55;;;1.80;91.30;;;;;;5059092;28;20035;-83
2021/04/18 05:08:17;;;;;;;20.48;13.23;;;1.90;91.10;;;;;;5052515;28;20036;-80
2021/04/18 05:10:43;;;;;;;19.55;12.75;;;1.90;91.00;;;;;;5064892;28;20139;-83
2021/04/18 05:13:09;;;;;;;16.00;11.90;;;1.90;91.00;;;;;;5077446;28;20210;-82
2021/04/18 05:15:34;;;;;;;15.55;10.23;;;1.90;91.00;;;;;;5066674;28;20032;-81
2021/04/18 05:18:00;;;;;;;16.88;11.60;;;1.90;91.00;;;;;;5050981;28;20050;-81
2021/04/18 05:20:26;;;;;;;14.52;12.02;;;1.90;91.10;;;;;;5055060;28;20219;-82
2021/04/18 05:22:52;;;;;;;19.60;13.68;;;2.00;91.20;;;;;;5067155;28;20865;-84
2021/04/18 05:25:18;;;;;;;16.92;12.18;;;2.00;91.30;;;;;;5072674;28;20101;-83
2021/04/18 05:27:43;;;;;;;17.95;12.20;;;2.00;91.30;;;;;;5084130;28;20138;-81
2021/04/18 05:30:10;;;;;;;15.15;11.60;;;2.10;91.30;;;;;;5079939;28;20073;-80
2021/04/18 05:32:37;;;;;;;16.30;12.77;;;2.20;91.30;;;;;;5071255;28;20481;-82
2021/04/18 05:35:04;;;;;;;13.35;10.73;;;2.30;91.40;;;;;;5075155;28;20422;-80
2021/04/18 05:37:30;;;;;;;13.82;9.63;;;2.30;91.40;;;;;;5057919;28;20060;-83
2021/04/18 05:39:56;;;;;;;16.02;11.73;;;2.40;91.40;;;;;;5057447;28;20039;-81
2021/04/18 05:42:22;;;;;;;15.70;11.40;;;2.40;91.30;;;;;;5069658;28;20040;-82
2021/04/18 05:44:48;;;;;;;15.20;10.02;;;2.60;91.40;;;;;;5070255;28;20737;-81
2021/04/18 05:47:14;;;;;;;18.40;13.93;;;2.60;91.30;;;;;;5052745;28;20068;-81
2021/04/18 05:49:40;;;;;;;17.55;13.20;;;2.60;91.30;;;;;;5072078;28;20074;-82
2021/04/18 05:52:06;;;;;;;22.33;15.00;;;2.70;91.40;;;;;;5069694;28;21052;-82
2021/04/18 05:54:32;;;;;;;19.85;12.45;;;2.80;91.50;;;;;;5065562;28;20774;-80
2021/04/18 05:57:01;;;;;;;17.95;12.18;;;2.90;91.50;;;;;;5065989;28;20058;-80
2021/04/18 05:59:27;;;;;;;17.20;12.57;;;3.00;91.50;;;;;;5058146;28;20317;-80
2021/04/18 06:01:53;;;;;;;16.63;13.32;;;3.20;91.50;;;;;;5060882;28;20409;-79
2021/04/18 06:04:19;;;;;;;20.13;14.38;;;3.10;91.50;;;;;;5066044;28;20040;-82
2021/04/18 06:06:44;;;;;;;14.80;12.25;;;3.30;91.50;;;;;;5053251;28;20556;-83
2021/04/18 06:09:10;;;;;;;17.98;13.93;;;3.40;91.50;;;;;;5045358;28;20446;-80
2021/04/18 06:11:36;;;;;;;26.48;15.57;;;3.40;91.50;;;;;;5078681;28;20032;-80
2021/04/18 06:14:02;;;;;;;23.25;15.15;;;3.60;91.60;;;;;;5082502;28;20401;-80
2021/04/18 06:16:27;;;;;;;21.92;14.77;;;3.80;91.60;;;;;;5080013;28;20040;-80
2021/04/18 06:18:53;;;;;;;27.10;16.75;;;4.00;91.70;;;;;;5058184;28;20560;-82
2021/04/18 06:21:19;;;;;;;19.67;13.80;;;4.10;91.70;;;;;;5049558;28;20059;-81
2021/04/18 06:23:45;;;;;;;26.15;16.33;;;4.30;91.70;;;;;;5081662;28;20032;-80
2021/04/18 06:26:12;;;;;;;28.15;18.77;;;4.40;91.60;;;;;;5064798;28;20039;-80
2021/04/18 06:28:38;;;;;;;29.05;17.67;;;4.50;91.90;;;;;;5069386;28;20482;-80
2021/04/18 06:31:05;;;;;;;25.52;17.08;;;4.70;91.70;;;;;;5084505;28;20028;-79
2021/04/18 06:33:30;;;;;;;30.15;17.58;;;4.80;91.70;;;;;;5083249;28;20024;-82
2021/04/18 06:35:56;;;;;;;26.10;15.90;;;5.00;91.70;;;;;;5079291;28;20376;-82
2021/04/18 06:38:22;;;;;;;25.02;16.17;;;5.10;91.70;;;;;;5073251;28;20105;-79
2021/04/18 06:40:53;;;;;;;29.60;19.17;;;5.30;91.70;;;;;;5061299;28;20036;-79
2021/04/18 06:43:21;;;;;;;24.13;17.40;;;5.40;91.70;;;;;;5066549;28;20107;-80
2021/04/18 06:45:54;;;;;;;24.83;15.48;;;5.50;91.70;;;;;;5062870;28;20071;-80
2021/04/18 06:48:20;;;;;;;;;;;5.70;91.80;;;;;;5086395;28;20032;-81
2021/04/18 06:50:49;;;;;;;28.35;15.35;;;5.80;91.90;;;;;;5085213;28;20264;-83
2021/04/18 06:53:16;;;;;;;26.13;16.23;;;5.90;91.50;;;;;;5083475;28;20046;-80
2021/04/18 06:55:43;;;;;;;25.38;15.85;;;6.00;91.50;;;;;;5082347;28;20190;-82
2021/04/18 06:58:08;;;;;;;25.67;15.90;;;6.20;91.40;;;;;;5075460;28;20032;-80
2021/04/18 07:00:34;;;;;;;33.00;18.77;;;6.30;91.50;;;;;;5081529;28;20379;-82
2021/04/18 07:03:14;;;;;;;27.77;16.77;;;6.40;91.60;;;;;;5084546;28;20024;-83
2021/04/18 07:05:42;;;;;;;28.80;17.48;;;6.70;91.50;;;;;;5083644;28;20052;-83
2021/04/18 07:08:29;;;;;;;25.17;16.08;;;6.80;91.70;;;;;;5082825;28;20087;-80
2021/04/18 07:11:18;;;;;;;26.92;16.25;;;7.10;91.30;;;;;;5078709;28;20032;-81
2021/04/18 07:13:45;;;;;;;23.13;14.27;;;7.20;91.20;;;;;;5083405;28;20074;-81
2021/04/18 07:16:25;;;;;;;25.83;13.02;;;7.40;90.90;;;;;;5082322;28;20044;-81
2021/04/18 07:18:55;;;;;;;23.23;13.07;;;7.50;90.60;;;;;;5084123;28;20024;-81
2021/04/18 07:21:22;;;;;;;24.92;12.13;;;7.60;90.20;;;;;;5064758;28;20070;-81
2021/04/18 07:23:48;;;;;;;19.88;11.40;;;7.70;90.00;;;;;;5064843;28;20051;-81
2021/04/18 07:26:22;;;;;;;19.15;11.77;;;7.80;89.50;;;;;;5079587;28;20417;-81
2021/04/18 07:28:50;;;;;;;22.13;12.15;;;7.80;88.40;;;;;;5080045;28;20032;-82
2021/04/18 07:31:30;;;;;;;23.60;11.30;;;7.90;88.20;;;;;;5065149;28;20293;-81
2021/04/18 07:34:05;;;;;;;18.08;10.30;;;8.10;86.60;;;;;;5081654;28;20040;-82
2021/04/18 07:36:32;;;;;;;18.45;11.30;;;8.30;86.10;;;;;;5086857;28;20031;-82
2021/04/18 07:38:58;;;;;;;20.70;10.32;;;8.50;85.70;;;;;;5081697;28;20036;-82
2021/04/18 07:41:25;;;;;;;16.63;9.57;;;8.60;84.80;;;;;;5072925;28;20044;-81
2021/04/18 07:43:51;;;;;;;16.60;8.50;;;8.80;85.20;;;;;;5079232;28;20036;-82
2021/04/18 07:46:19;;;;;;;16.15;8.35;;;8.80;83.80;;;;;;5078809;28;20044;-81
2021/04/18 07:48:46;;;;;;;14.05;8.57;;;9.00;83.00;;;;;;5075410;28;20533;-81
2021/04/18 07:51:12;;;;;;;18.38;9.45;;;9.10;82.60;;;;;;5080492;28;20039;-83
2021/04/18 07:53:38;;;;;;;18.20;8.95;;;9.30;82.10;;;;;;5083126;28;20028;-83
2021/04/18 07:56:12;;;;;;;18.35;8.93;;;9.40;80.70;;;;;;5090371;28;20040;-83
2021/04/18 07:58:43;;;;;;;17.73;8.90;;;9.60;80.00;;;;;;5079752;28;20035;-84
2021/04/18 08:01:09;;;;;;;13.52;8.50;;;9.70;78.90;;;;;;5083769;28;20095;-84
2021/04/18 08:03:41;;;;;;;13.52;7.72;;;9.80;78.00;;;;;;5083885;28;20179;-83
2021/04/18 08:06:07;;;;;;;15.87;8.33;;;9.90;77.40;;;;;;5083398;28;20118;-83
2021/04/18 08:08:48;;;;;;;16.50;7.32;;;10.00;76.30;;;;;;5060474;28;20039;-83
2021/04/18 08:11:16;;;;;;;15.75;8.23;;;10.10;75.60;;;;;;5084228;28;20028;-83
2021/04/18 08:13:48;;;;;;;15.95;8.50;;;10.20;75.20;;;;;;5077404;28;20398;-83
2021/04/18 08:16:31;;;;;;;16.35;8.50;;;10.20;74.80;;;;;;5079631;28;20244;-83
2021/04/18 08:19:09;;;;;;;16.10;8.30;;;10.20;74.90;;;;;;5083575;28;20032;-83
2021/04/18 08:21:38;;;;;;;14.25;8.38;;;10.30;74.00;;;;;;5082602;28;20042;-82
2021/04/18 08:24:27;;;;;;;14.20;8.40;;;10.20;75.00;;;;;;5076647;28;20028;-83
2021/04/18 08:27:04;;;;;;;17.27;8.23;;;10.20;74.60;;;;;;5071277;28;20039;-82
2021/04/18 08:29:30;;;;;;;14.32;8.30;;;10.20;75.00;;;;;;5080516;28;20040;-83
2021/04/18 08:31:58;;;;;;;12.75;8.73;;;10.20;75.70;;;;;;5074559;28;20067;-83
2021/04/18 08:34:38;;;;;;;17.23;9.38;;;10.20;75.30;;;;;;5075942;28;20481;-84
2021/04/18 08:37:11;;;;;;;15.23;9.32;;;10.20;75.70;;;;;;5070608;28;20036;-82
2021/04/18 08:39:39;;;;;;;14.38;8.90;;;10.30;76.10;;;;;;5089827;28;20077;-82
2021/04/18 08:42:08;;;;;;;15.93;8.85;;;10.40;76.40;;;;;;5075277;28;20036;-83
2021/04/18 08:44:37;;;;;;;15.13;9.30;;;10.50;76.60;;;;;;5081357;28;20032;-82
2021/04/18 08:47:19;;;;;;;19.33;8.82;;;10.70;76.60;;;;;;5080498;28;20126;-82
2021/04/18 08:49:57;;;;;;;17.17;9.30;;;10.70;76.00;;;;;;5079630;28;20097;-81
2021/04/18 08:52:26;;;;;;;20.55;9.07;;;10.80;75.70;;;;;;5072198;28;20100;-81
2021/04/18 08:54:57;;;;;;;13.88;8.65;;;10.90;75.50;;;;;;5081346;28;20036;-82
2021/04/18 08:57:29;;;;;;;16.27;8.80;;;11.00;75.60;;;;;;5078816;28;20032;-82
2021/04/18 08:59:58;;;;;;;15.73;8.73;;;11.10;74.70;;;;;;5080606;28;20357;-81
2021/04/18 09:02:25;;;;;;;16.58;8.80;;;11.20;74.20;;;;;;5077984;28;20554;-80
2021/04/18 09:04:56;;;;;;;13.18;8.65;;;11.40;73.80;;;;;;5084222;28;20058;-81
2021/04/18 09:07:25;;;;;;;16.90;9.52;;;11.50;73.10;;;;;;5080571;28;20051;-81
2021/04/18 09:09:55;;;;;;;16.75;8.00;;;11.70;73.10;;;;;;5079288;28;21272;-81
2021/04/18 09:12:21;;;;;;;14.40;8.80;;;11.80;72.20;;;;;;5077472;28;20044;-81
2021/04/18 09:14:50;;;;;;;16.75;8.68;;;11.90;71.80;;;;;;5063335;28;20517;-81
2021/04/18 09:17:21;;;;;;;15.85;8.93;;;12.10;71.00;;;;;;5081667;28;20040;-81
2021/04/18 09:19:51;;;;;;;17.23;8.98;;;12.20;70.90;;;;;;5076286;28;20032;-82
2021/04/18 09:22:18;;;;;;;16.38;9.02;;;12.30;70.40;;;;;;5082278;28;20036;-81
2021/04/18 09:25:08;;;;;;;18.70;9.07;;;12.40;69.90;;;;;;5077078;28;20035;-81
2021/04/18 09:27:40;;;;;;;17.45;9.73;;;12.50;69.60;;;;;;5074741;28;20128;-81
2021/04/18 09:30:09;;;;;;;16.08;9.13;;;12.60;69.50;;;;;;5086414;28;20654;-81
2021/04/18 09:32:44;;;;;;;16.17;8.75;;;12.70;69.40;;;;;;5079013;28;20029;-81
2021/04/18 09:35:12;;;;;;;15.05;9.00;;;12.80;69.20;;;;;;5083865;28;20028;-81
2021/04/18 09:37:40;;;;;;;17.58;9.10;;;12.90;68.80;;;;;;5085819;28;20081;-81
2021/04/18 09:40:09;;;;;;;15.85;6.32;;;13.00;68.60;;;;;;5076168;28;20044;-81
2021/04/18 09:42:38;;;;;;;13.40;7.18;;;13.10;65.40;;;;;;5078187;28;20418;-82
2021/04/18 09:45:14;;;;;;;11.18;7.10;;;13.10;65.80;;;;;;5065278;28;20351;-81
2021/04/18 09:47:42;;;;;;;11.23;6.32;;;13.20;65.30;;;;;;5080359;28;20032;-80
2021/04/18 09:50:34;;;;;;;14.63;7.13;;;13.30;64.80;;;;;;5058397;28;20028;-81
2021/04/18 09:53:22;;;;;;;14.35;8.43;;;13.40;63.80;;;;;;5078309;28;20032;-81
2021/04/18 09:55:53;;;;;;;14.75;7.15;;;13.60;64.70;;;;;;5083322;28;20043;-81
2021/04/18 09:58:34;;;;;;;11.70;6.50;;;13.70;64.20;;;;;;5078993;28;20032;-81
2021/04/18 10:01:01;;;;;;;11.10;6.22;;;13.90;63.00;;;;;;5079033;28;20526;-81
2021/04/18 10:03:38;;;;;;;14.13;6.25;;;13.90;61.20;;;;;;5059276;28;20042;-81
2021/04/18 10:06:05;;;;;;;9.60;6.18;;;13.90;61.40;;;;;;5066830;28;20040;-80
2021/04/18 10:08:33;;;;;;;11.90;5.50;;;13.90;60.50;;;;;;5085976;28;20063;-80
2021/04/18 10:11:08;;;;;;;9.93;4.85;;;13.80;59.30;;;;;;5083878;28;20035;-81
2021/04/18 10:13:39;;;;;;;9.52;5.22;;;13.90;58.40;;;;;;5078853;28;20041;-82
2021/04/18 10:16:06;;;;;;;12.68;5.63;;;13.90;57.90;;;;;;5074775;28;20043;-80
2021/04/18 10:18:34;;;;;;;10.07;4.60;;;13.90;57.30;;;;;;5078199;28;20043;-80
2021/04/18 10:21:16;;;;;;;10.18;5.95;;;13.90;57.40;;;;;;5047283;28;20115;-81
2021/04/18 10:23:43;;;;;;;15.20;5.80;;;13.90;56.00;;;;;;5061590;28;20105;-81
2021/04/18 10:26:09;;;;;;;11.05;6.45;;;13.90;57.50;;;;;;5080468;28;20103;-81
2021/04/18 10:28:34;;;;;;;10.30;6.38;;;14.10;58.50;;;;;;5083297;28;20526;-81
2021/04/18 10:31:01;;;;;;;13.63;6.05;;;14.10;58.50;;;;;;5057956;28;20075;-80
2021/04/18 10:33:26;;;;;;;11.25;6.50;;;14.20;58.30;;;;;;5066269;28;20163;-79
2021/04/18 10:35:57;;;;;;;11.68;6.75;;;14.30;56.80;;;;;;5082392;28;20111;-80
2021/04/18 10:38:23;;;;;;;13.57;7.53;;;14.30;56.90;;;;;;5079857;28;20467;-79
2021/04/18 10:40:49;;;;;;;12.98;7.50;;;14.40;57.30;;;;;;5082799;28;20111;-81
2021/04/18 10:43:16;;;;;;;9.80;5.30;;;14.50;58.00;;;;;;5067899;28;20075;-80
2021/04/18 10:45:42;;;;;;;9.65;5.55;;;14.70;55.90;;;;;;5083931;28;20044;-81
2021/04/18 10:48:08;;;;;;;9.88;5.22;;;14.80;55.20;;;;;;5056617;28;20094;-81
2021/04/18 10:50:34;;;;;;;9.93;5.32;;;14.80;53.50;;;;;;5082721;28;20476;-80
2021/04/18 10:53:00;;;;;;;8.07;5.07;;;14.70;54.40;;;;;;5070905;28;20362;-80
2021/04/18 10:55:26;;;;;;;7.53;5.22;;;14.80;53.80;;;;;;5086574;28;20642;-80
2021/04/18 10:57:52;;;;;;;10.50;5.18;;;14.70;53.30;;;;;;5061170;28;20028;-81
2021/04/18 11:00:18;;;;;;;15.35;5.45;;;14.70;52.10;;;;;;5085027;28;20100;-81
2021/04/18 11:02:44;;;;;;;8.93;5.40;;;14.80;52.90;;;;;;5065506;28;20086;-81
2021/04/18 11:05:12;;;;;;;9.80;5.53;;;14.80;54.00;;;;;;5066124;28;20028;-77
2021/04/18 11:07:38;;;;;;;9.63;4.88;;;14.90;53.30;;;;;;5062878;28;20033;-80
2021/04/18 11:10:07;;;;;;;11.70;5.55;;;14.90;53.70;;;;;;5036710;28;20645;-81
2021/04/18 11:12:34;;;;;;;8.30;4.90;;;15.10;53.40;;;;;;5034390;28;20040;-80
2021/04/18 11:15:00;;;;;;;8.27;5.40;;;15.10;53.50;;;;;;5067837;28;20398;-80
2021/04/18 11:17:26;;;;;;;7.88;5.03;;;15.10;53.60;;;;;;5064345;28;20479;-79
2021/04/18 11:19:55;;;;;;;7.35;4.53;;;15.30;54.30;;;;;;5025629;28;20048;-78
2021/04/18 11:22:21;;;;;;;10.45;5.60;;;15.40;53.70;;;;;;5073913;28;20324;-80
2021/04/18 11:24:47;;;;;;;9.43;5.20;;;15.40;53.20;;;;;;5061662;28;20025;-81
2021/04/18 11:27:13;;;;;;;12.15;4.90;;;15.50;53.20;;;;;;5060197;28;21949;-80
2021/04/18 11:29:42;;;;;;;9.70;4.65;;;15.60;52.80;;;;;;5044089;28;20032;-80
2021/04/18 11:32:08;;;;;;;11.45;5.15;;;15.60;52.50;;;;;;5068504;28;20043;-82
2021/04/18 11:34:35;;;;;;;8.63;4.60;;;15.70;52.20;;;;;;5059192;28;20591;-80
2021/04/18 11:37:01;;;;;;;7.90;4.60;;;15.80;52.10;;;;;;5062032;28;20932;-80
2021/04/18 11:39:28;;;;;;;10.52;5.30;;;15.90;52.40;;;;;;5071259;28;20050;-81
2021/04/18 11:41:53;;;;;;;9.48;5.85;;;15.90;50.80;;;;;;5077183;28;20077;-81
2021/04/18 11:44:20;;;;;;;10.95;5.10;;;16.00;50.20;;;;;;5065206;28;20139;-81
2021/04/18 11:46:46;;;;;;;9.35;4.95;;;16.00;50.50;;;;;;5065899;28;20489;-80
2021/04/18 11:49:12;;;;;;;7.90;4.97;;;16.00;51.00;;;;;;5068811;28;20044;-81
2021/04/18 11:51:38;;;;;;;10.45;4.95;;;16.00;51.70;;;;;;5068396;28;20059;-80
2021/04/18 11:54:06;;;;;;;9.80;5.68;;;16.10;51.20;;;;;;5055761;28;20486;-80
2021/04/18 11:56:32;;;;;;;12.18;5.30;;;16.20;51.80;;;;;;5070015;28;20067;-81
2021/04/18 11:58:58;;;;;;;16.08;5.40;;;16.30;50.50;;;;;;5055460;28;20395;-83
2021/04/18 12:01:24;;;;;;;9.75;5.70;;;16.30;50.90;;;;;;5080156;28;20043;-84
2021/04/18 12:03:50;;;;;;;8.18;5.15;;;16.30;50.70;;;;;;5074710;28;20063;-81
2021/04/18 12:06:16;;;;;;;12.85;5.70;;;16.30;51.40;;;;;;5064781;28;20052;-81
2021/04/18 12:08:43;;;;;;;10.18;6.07;;;16.40;51.00;;;;;;5081015;28;20036;-82
2021/04/18 12:11:10;;;;;;;11.70;5.57;;;16.50;51.20;;;;;;5085403;28;20042;-80
2021/04/18 12:13:36;;;;;;;12.23;5.80;;;16.70;50.70;;;;;;5067266;28;20040;-82
2021/04/18 12:16:01;;;;;;;10.90;5.75;;;16.80;50.80;;;;;;5045230;28;20055;-81
2021/04/18 12:18:27;;;;;;;11.25;5.43;;;17.10;51.40;;;;;;5087630;28;20028;-83
2021/04/18 12:20:53;;;;;;;8.60;5.63;;;17.20;50.20;;;;;;5087200;28;20507;-83
2021/04/18 12:23:19;;;;;;;5.95;4.97;;;17.30;50.70;;;;;;5078623;28;20036;-80
2021/04/18 12:25:45;;;;;;;9.25;5.38;;;17.40;50.70;;;;;;5069575;28;20135;-82
2021/04/18 12:28:12;;;;;;;10.18;5.38;;;17.40;50.60;;;;;;5074489;28;20090;-82
2021/04/18 12:30:39;;;;;;;8.10;4.70;;;17.40;49.90;;;;;;5067225;28;20032;-83
2021/04/18 12:33:05;;;;;;;9.35;4.45;;;17.50;49.90;;;;;;5049593;28;20167;-83
2021/04/18 12:35:31;;;;;;;8.13;4.60;;;17.50;49.20;;;;;;5053824;28;20040;-81
2021/04/18 12:37:57;;;;;;;7.43;4.25;;;17.60;49.40;;;;;;5067369;28;20024;-82
2021/04/18 12:40:23;;;;;;;7.78;4.07;;;17.70;49.20;;;;;;5073740;28;20457;-87
2021/04/18 12:42:49;;;;;;;5.10;4.15;;;17.70;48.10;;;;;;5070829;28;20113;-82